CDT,Max TemperatureF,Mean TemperatureF,Min TemperatureF,Max Dew PointF,MeanDew PointF,Min DewpointF,Max Humidity, Mean Humidity, Min Humidity, Max Sea Level PressureIn, Mean Sea Level PressureIn, Min Sea Level PressureIn, Max VisibilityMiles, Mean VisibilityMiles, Min VisibilityMiles, Max Wind SpeedMPH, Mean Wind SpeedMPH, Max Gust SpeedMPH,PrecipitationIn, CloudCover, Events, WindDirDegrees
2013-3-1,30,25,19,23,19,15,81,70,58,30.39,30.32,30.23,10,10,9,21,11,30,0.00,6,,351
2013-3-2,40,27,13,26,20,12,91,75,59,30.41,30.28,30.10,10,8,4,17,6,22,0.00,1,,197
2013-3-3,50,39,28,36,30,25,92,74,56,30.08,29.82,29.65,8,6,4,16,8,21,0.00,0,,156
2013-3-4,42,35,28,34,31,22,100,82,64,30.12,29.81,29.62,10,6,4,21,12,36,0.04,5,Rain,348
2013-3-5,39,31,23,17,15,12,68,53,37,30.43,30.31,30.17,10,10,10,32,16,45,0.00,0,,328
2013-3-6,44,31,17,23,18,13,84,60,36,30.46,30.34,30.21,10,9,6,21,8,26,0.00,0,,105
2013-3-7,62,43,24,32,26,21,88,58,27,30.19,30.10,30.01,9,7,4,23,12,30,0.00,0,,129
2013-3-8,64,47,30,46,38,26,85,66,47,30.08,29.97,29.85,8,6,4,25,14,32,T,4,,135
2013-3-9,64,49,34,52,46,30,96,82,67,29.81,29.64,29.50,10,7,3,33,20,41,0.05,6,Rain-Thunderstorm,157
2013-3-10,34,29,23,30,22,16,96,85,74,30.06,29.91,29.70,9,2,0,32,19,41,0.12,8,Fog-Rain-Snow,342
2013-3-11,38,25,11,26,16,8,84,65,45,30.06,30.01,29.91,10,10,8,16,7,23,0.00,1,,296
2013-3-12,45,35,25,27,21,16,78,56,33,30.40,30.24,30.05,10,10,9,29,11,36,0.00,2,,317
2013-3-13,53,35,17,29,22,14,84,58,32,30.46,30.36,30.19,10,10,10,18,8,25,0.00,1,,158
2013-3-14,73,56,39,37,34,28,70,49,27,30.19,30.11,30.06,10,10,10,17,8,22,0.00,1,,202
2013-3-15,81,60,39,42,36,33,76,49,21,30.03,29.81,29.63,10,10,4,20,9,24,0.00,0,,244
2013-3-16,48,40,31,32,26,23,85,70,54,30.14,30.02,29.78,10,7,2,29,16,37,0.13,5,Rain-Snow,32
2013-3-17,37,33,28,34,29,25,92,89,85,30.07,29.90,29.71,7,4,2,18,9,23,0.07,8,Rain,99
2013-3-18,52,42,32,34,28,15,100,64,27,30.10,29.89,29.76,10,6,2,26,12,36,0.00,4,,298
2013-3-19,49,41,32,36,30,16,96,70,44,30.31,30.19,30.07,10,7,0,18,7,23,0.06,7,Fog-Rain-Snow,277
2013-3-20,43,32,20,24,18,15,84,59,34,30.46,30.31,30.07,10,10,7,15,6,20,0.00,1,,16
2013-3-21,44,37,29,26,19,12,85,60,34,30.04,29.91,29.81,10,9,3,26,15,35,0.00,5,,103
2013-3-22,40,34,27,30,27,24,92,78,64,30.01,29.96,29.91,6,3,1,15,6,17,0.01,8,Snow,82
2013-3-23,34,31,28,29,26,21,92,77,61,30.07,29.99,29.94,7,2,0,28,14,37,0.07,8,Fog-Snow,41
2013-3-24,35,29,22,27,19,13,92,70,47,30.21,30.10,30.03,10,5,0,29,19,38,0.06,5,Fog-Snow,346
2013-3-25,34,28,21,18,16,14,77,62,47,30.42,30.31,30.18,10,9,3,25,14,31,T,6,Snow,326
2013-3-26,46,31,15,23,16,10,80,57,33,30.44,30.35,30.23,10,10,9,14,8,22,0.00,0,,226
2013-3-27,57,44,31,31,25,22,75,53,30,30.23,30.16,30.10,10,9,7,21,9,25,0.00,3,,132
2013-3-28,64,45,25,32,28,24,92,59,25,30.22,30.17,30.09,10,8,2,14,5,17,0.00,0,,101
2013-3-29,72,53,33,49,39,31,89,60,31,30.19,30.11,29.99,10,10,5,22,10,28,T,1,,124
2013-3-30,70,59,48,55,49,38,93,65,37,30.03,29.94,29.88,10,8,2,22,9,26,0.28,5,Rain-Thunderstorm,73
2013-3-31,64,52,40,45,34,24,93,58,23,30.04,30.00,29.91,10,10,10,25,9,32,T,2,Rain,304